Time;durP1;ratioP1;P1;durP2;ratioP2;P2;SDS_P1;SDS_P2;PMS_P1;PMS_P2;Temp;Humidity;BMP_temperature;BMP_pressure;BME280_temperature;BME280_humidity;BME280_pressure;Samples;Min_cycle;Max_cycle;Signal;HPM_P1;HPM_P2
2024/02/19 00:02:10;;;;;;;29.77;18.35;;;;;;;29.20;75.54;101185.88;5037187;28;69843;-34
2024/02/19 00:04:40;;;;;;;23.15;17.02;;;;;;;29.25;75.21;101179.84;5040437;28;67307;-35
2024/02/19 00:07:11;;;;;;;23.42;17.95;;;;;;;29.26;77.27;101178.81;5037302;28;70512;-35
2024/02/19 00:09:42;;;;;;;29.45;17.92;;;;;;;29.31;77.55;101179.88;5034918;28;65988;-35
2024/02/19 00:12:12;;;;;;;36.38;19.30;;;;;;;29.30;76.75;101175.50;5039070;28;69883;-36
2024/02/19 00:14:43;;;;;;;31.92;17.77;;;;;;;29.39;76.50;101184.25;5040433;28;67610;-36
2024/02/19 00:17:14;;;;;;;24.55;18.27;;;;;;;29.43;76.96;101192.81;5031260;28;70417;-34
2024/02/19 00:19:44;;;;;;;29.20;18.88;;;;;;;29.42;76.61;101186.56;5039461;28;66757;-35
2024/02/19 00:22:15;;;;;;;25.95;18.30;;;;;;;29.46;78.01;101181.59;5034110;28;70063;-35
2024/02/19 00:24:46;;;;;;;28.88;17.90;;;;;;;29.46;77.63;101182.41;5037247;28;66720;-34
2024/02/19 00:27:17;;;;;;;23.90;17.73;;;;;;;29.47;78.36;101185.94;5038864;28;70225;-35
2024/02/19 00:29:48;;;;;;;27.05;18.23;;;;;;;29.54;77.74;101190.34;5039354;28;65939;-44
2024/02/19 00:32:18;;;;;;;26.27;18.85;;;;;;;29.54;78.91;101200.31;5037180;28;70157;-34
2024/02/19 00:34:50;;;;;;;31.17;18.67;;;;;;;29.57;79.66;101205.31;5037996;28;66167;-34
2024/02/19 00:37:20;;;;;;;31.33;19.58;;;;;;;29.58;78.30;101201.56;5036711;28;70797;-35
2024/02/19 00:39:50;;;;;;;28.55;20.05;;;;;;;29.56;78.68;101198.22;5039525;28;66101;-34
2024/02/19 00:42:21;;;;;;;30.75;19.42;;;;;;;29.66;78.81;101217.63;5038480;28;70289;-34
2024/02/19 00:44:52;;;;;;;21.95;18.05;;;;;;;29.68;78.77;101212.88;5037920;28;66563;-34
2024/02/19 00:47:22;;;;;;;28.35;18.83;;;;;;;29.70;79.19;101216.19;5038613;28;70142;-35
2024/02/19 00:49:56;;;;;;;26.95;18.27;;;;;;;29.66;79.06;101204.13;5034740;28;65852;-35
2024/02/19 00:52:26;;;;;;;26.08;18.00;;;;;;;29.76;79.78;101214.56;5036128;28;70342;-34
2024/02/19 00:54:57;;;;;;;20.85;17.63;;;;;;;29.72;80.78;101214.09;5035938;28;65853;-34
2024/02/19 00:57:28;;;;;;;25.15;17.17;;;;;;;29.78;79.79;101221.44;5035286;28;70863;-35
2024/02/19 00:59:58;;;;;;;24.88;16.58;;;;;;;29.84;78.80;101234.13;5035287;28;65395;-35
2024/02/19 01:02:29;;;;;;;26.67;16.52;;;;;;;29.88;78.16;101236.41;5037752;28;69795;-35
2024/02/19 01:05:05;;;;;;;23.85;16.08;;;;;;;29.88;78.81;101233.72;5036875;28;66398;-37
2024/02/19 01:07:37;;;;;;;21.52;15.25;;;;;;;29.89;78.10;101246.19;5037137;28;70903;-35
2024/02/19 01:10:09;;;;;;;17.02;15.32;;;;;;;29.91;77.90;101252.22;5036267;28;66144;-35
2024/02/19 01:12:40;;;;;;;25.15;15.23;;;;;;;29.87;77.98;101248.28;5038041;28;70811;-34
2024/02/19 01:15:11;;;;;;;16.85;15.10;;;;;;;29.95;77.51;101267.00;5036958;28;66258;-35
2024/02/19 01:17:43;;;;;;;20.85;15.52;;;;;;;29.93;77.22;101258.28;5037103;28;70105;-35
2024/02/19 01:20:14;;;;;;;23.83;15.23;;;;;;;29.95;77.32;101258.88;5037111;28;66359;-35
2024/02/19 01:22:44;;;;;;;17.15;15.45;;;;;;;29.97;77.25;101259.50;5037945;28;69995;-34
2024/02/19 01:25:16;;;;;;;17.98;14.80;;;;;;;29.98;76.57;101266.59;5038092;28;66166;-35
2024/02/19 01:27:47;;;;;;;15.80;14.35;;;;;;;30.01;77.23;101271.59;5036145;28;69564;-35
2024/02/19 01:30:17;;;;;;;16.80;14.10;;;;;;;30.04;76.61;101276.59;5035837;28;66419;-35
2024/02/19 01:32:48;;;;;;;16.38;13.77;;;;;;;30.00;76.83;101264.50;5030580;28;69186;-35
2024/02/19 01:35:18;;;;;;;17.20;14.50;;;;;;;30.05;76.40;101275.56;5037134;28;66435;-34
2024/02/19 01:37:49;;;;;;;15.88;13.57;;;;;;;30.07;76.45;101270.78;5039263;28;69803;-36
2024/02/19 01:40:19;;;;;;;16.33;13.93;;;;;;;30.10;76.13;101270.38;5038260;28;65765;-34
2024/02/19 01:43:12;;;;;;;17.70;13.50;;;;;;;30.11;76.35;101282.84;5025719;28;69923;-35
2024/02/19 01:45:43;;;;;;;19.08;13.77;;;;;;;30.10;76.00;101281.19;5036717;28;66707;-35
2024/02/19 01:48:14;;;;;;;19.20;15.65;;;;;;;30.11;75.51;101282.84;5032135;28;69392;-35
2024/02/19 01:50:47;;;;;;;15.10;13.80;;;;;;;30.14;76.08;101287.84;5033933;28;66119;-35
2024/02/19 01:53:18;;;;;;;15.63;13.63;;;;;;;30.19;75.92;101301.59;5034114;28;70704;-35
2024/02/19 01:55:48;;;;;;;18.60;14.48;;;;;;;30.19;75.50;101296.19;5033817;28;66170;-36
2024/02/19 01:58:19;;;;;;;16.02;13.73;;;;;;;30.22;75.22;101301.19;5033065;28;70616;-35
2024/02/19 02:00:51;;;;;;;17.77;13.27;;;;;;;30.20;75.56;101292.44;5036026;28;65289;-35
2024/02/19 02:03:22;;;;;;;14.75;13.20;;;;;;;30.25;75.51;101300.78;5034609;28;69521;-35
2024/02/19 02:05:53;;;;;;;14.40;13.00;;;;;;;30.25;75.34;101299.97;5033912;28;66838;-37
2024/02/19 02:08:24;;;;;;;14.27;12.85;;;;;;;30.30;74.92;101302.88;5033152;28;70471;-34
2024/02/19 02:10:54;;;;;;;13.73;12.38;;;;;;;30.33;74.99;101312.47;5037318;28;68072;-35
2024/02/19 02:13:25;;;;;;;16.90;13.05;;;;;;;30.35;75.12;101310.41;5034782;28;69487;-34
2024/02/19 02:15:56;;;;;;;14.75;13.25;;;;;;;30.38;74.69;101309.97;5032831;28;66082;-35
2024/02/19 02:18:30;;;;;;;14.85;13.38;;;;;;;30.32;74.61;101300.00;5036306;28;70683;-35
2024/02/19 02:21:01;;;;;;;14.93;12.87;;;;;;;30.41;74.54;101315.81;5037917;28;65135;-36
2024/02/19 02:23:33;;;;;;;16.42;13.05;;;;;;;30.43;74.94;101310.19;5036832;28;70991;-35
2024/02/19 02:26:03;;;;;;;13.43;12.13;;;;;;;30.41;74.72;101304.97;5037838;28;66042;-35
2024/02/19 02:28:34;;;;;;;13.35;12.00;;;;;;;30.49;74.72;101309.38;5038402;28;70479;-35
2024/02/19 02:31:05;;;;;;;16.15;12.32;;;;;;;30.53;74.26;101324.13;5036215;28;65525;-36
2024/02/19 02:33:35;;;;;;;14.10;12.20;;;;;;;30.48;74.49;101308.53;5038502;28;70110;-36
2024/02/19 02:36:12;;;;;;;13.15;11.88;;;;;;;30.57;74.33;101322.69;5038737;28;66035;-35
2024/02/19 02:38:42;;;;;;;13.75;12.43;;;;;;;30.58;74.44;101316.22;5037686;28;70622;-35
2024/02/19 02:41:14;;;;;;;13.32;12.10;;;;;;;30.62;73.84;101312.09;5040226;28;65768;-35
2024/02/19 02:43:44;;;;;;;15.88;12.35;;;;;;;30.61;74.25;101313.09;5037553;28;69822;-34
2024/02/19 02:46:15;;;;;;;13.07;11.85;;;;;;;30.68;74.29;101307.72;5038397;28;66372;-36
2024/02/19 02:48:45;;;;;;;15.88;12.90;;;;;;;30.69;74.00;101307.47;5038486;28;69323;-35
2024/02/19 02:51:16;;;;;;;14.00;12.75;;;;;;;30.72;74.12;101307.06;5036482;28;65442;-35
2024/02/19 02:53:47;;;;;;;13.85;12.48;;;;;;;30.76;73.93;101309.34;5038967;28;70456;-36
2024/02/19 02:56:21;;;;;;;14.95;12.73;;;;;;;30.79;73.83;101298.13;5039576;28;66407;-35
2024/02/19 02:58:52;;;;;;;14.82;12.63;;;;;;;30.82;73.45;101295.03;5037573;28;69675;-35
2024/02/19 03:01:27;;;;;;;13.32;11.93;;;;;;;30.85;73.71;101291.88;5041049;28;65928;-36
2024/02/19 03:03:58;;;;;;;12.88;11.65;;;;;;;30.85;73.49;101291.88;5041980;28;70501;-37
2024/02/19 03:06:28;;;;;;;13.60;12.40;;;;;;;30.90;73.25;101297.50;5040314;28;66289;-36
2024/02/19 03:08:59;;;;;;;13.68;12.57;;;;;;;30.94;72.73;101287.91;5041851;28;70554;-35
2024/02/19 03:11:30;;;;;;;13.45;12.10;;;;;;;30.95;73.07;101273.31;5041224;28;66402;-34
2024/02/19 03:14:02;;;;;;;13.85;12.65;;;;;;;30.98;72.62;101277.47;5040727;28;70402;-37
2024/02/19 03:16:34;;;;;;;13.07;11.87;;;;;;;31.01;72.56;101267.06;5040383;28;65843;-35
2024/02/19 03:19:05;;;;;;;13.38;12.15;;;;;;;31.01;72.65;101261.66;5040082;28;70036;-34
2024/02/19 03:21:40;;;;;;;13.10;12.05;;;;;;;31.07;72.60;101268.09;5041933;28;67126;-36
2024/02/19 03:24:11;;;;;;;13.02;11.98;;;;;;;31.10;72.52;101275.78;5038934;28;70105;-37
2024/02/19 03:26:42;;;;;;;13.52;12.15;;;;;;;31.11;72.65;101278.28;5039129;28;65843;-36
2024/02/19 03:29:13;;;;;;;14.65;12.95;;;;;;;31.17;72.33;101276.59;5038086;28;70867;-37
2024/02/19 03:31:44;;;;;;;12.68;11.57;;;;;;;31.19;72.07;101270.97;5041116;28;66210;-37
2024/02/19 03:34:15;;;;;;;14.10;12.18;;;;;;;31.17;72.31;101257.63;5038082;28;69863;-35
2024/02/19 03:36:49;;;;;;;14.60;12.48;;;;;;;31.25;72.34;101272.81;5041723;28;65436;-36
2024/02/19 03:39:20;;;;;;;13.00;11.88;;;;;;;31.27;71.64;101268.84;5039871;28;70119;-36
2024/02/19 03:41:51;;;;;;;13.50;12.38;;;;;;;31.31;72.36;101255.69;5039930;28;66701;-35
2024/02/19 03:44:22;;;;;;;13.55;12.30;;;;;;;31.33;71.72;101250.91;5041136;28;69599;-36
2024/02/19 03:46:52;;;;;;;12.93;11.80;;;;;;;31.37;71.55;101244.03;5030955;28;65869;-34
2024/02/19 03:49:25;;;;;;;;;;;;;;;31.33;72.00;101253.63;5033038;28;69184;-35
2024/02/19 03:51:55;;;;;;;14.30;11.65;;;;;;;31.43;71.66;101245.91;5041428;28;67382;-37
2024/02/19 03:54:26;;;;;;;13.18;12.00;;;;;;;31.47;71.24;101246.28;5039335;28;70060;-35
2024/02/19 03:57:04;;;;;;;12.55;11.45;;;;;;;31.48;71.43;101224.41;5040102;28;66330;-36
2024/02/19 03:59:35;;;;;;;13.90;12.52;;;;;;;31.45;71.45;101218.56;5040134;28;70338;-35
2024/02/19 04:02:06;;;;;;;13.20;12.10;;;;;;;31.52;71.26;101214.78;5038494;28;66786;-34
2024/02/19 04:04:36;;;;;;;13.23;11.90;;;;;;;31.55;71.17;101219.75;5040681;28;69869;-36
2024/02/19 04:07:08;;;;;;;13.38;12.27;;;;;;;31.59;71.31;101212.88;5041363;28;66319;-36
2024/02/19 04:09:38;;;;;;;12.80;11.73;;;;;;;31.60;71.12;101200.13;5037478;28;70305;-34
2024/02/19 04:12:09;;;;;;;12.52;11.50;;;;;;;31.61;70.85;101191.75;5039141;28;65783;-34
2024/02/19 04:14:41;;;;;;;12.07;11.15;;;;;;;31.67;71.07;101200.91;5040463;28;70089;-34
2024/02/19 04:17:11;;;;;;;12.90;11.77;;;;;;;31.72;70.93;101192.13;5040087;28;65333;-35
2024/02/19 04:19:43;;;;;;;13.95;12.45;;;;;;;31.73;70.74;101188.34;5030782;28;70514;-36
2024/02/19 04:22:13;;;;;;;13.10;11.90;;;;;;;31.76;71.07;101179.78;5039670;28;67583;-35
2024/02/19 04:24:44;;;;;;;14.27;12.00;;;;;;;31.80;71.10;101178.31;5040696;28;69955;-34
2024/02/19 04:27:17;;;;;;;13.32;12.13;;;;;;;31.82;70.70;101171.59;5039125;28;65994;-34
2024/02/19 04:29:48;;;;;;;12.77;11.48;;;;;;;31.77;70.49;101149.72;5039122;28;70248;-35
2024/02/19 04:32:18;;;;;;;13.20;12.05;;;;;;;31.91;70.63;101163.19;5040166;28;65395;-34
2024/02/19 04:34:49;;;;;;;12.75;11.60;;;;;;;31.92;70.23;101160.28;5039674;28;70626;-35
2024/02/19 04:37:20;;;;;;;13.50;12.25;;;;;;;31.97;70.34;101156.91;5033059;28;66788;-34
2024/02/19 04:39:51;;;;;;;12.13;11.13;;;;;;;31.98;70.17;101143.13;5040301;28;70845;-35
2024/02/19 04:42:22;;;;;;;13.03;11.83;;;;;;;32.02;70.42;101143.53;5038285;28;66310;-35
2024/02/19 04:44:52;;;;;;;12.75;11.65;;;;;;;32.04;70.12;101133.28;5038201;28;69532;-35
2024/02/19 04:47:23;;;;;;;12.43;11.35;;;;;;;32.05;70.04;101133.03;5032114;28;65609;-35
2024/02/19 04:49:54;;;;;;;12.80;11.65;;;;;;;32.07;70.14;101124.69;5040091;28;70490;-36
2024/02/19 04:52:25;;;;;;;11.90;10.85;;;;;;;32.12;70.09;101127.53;5038032;28;66434;-35
2024/02/19 04:54:56;;;;;;;12.00;11.00;;;;;;;32.16;70.09;101117.91;5040362;28;69371;-36
2024/02/19 04:57:26;;;;;;;12.83;11.60;;;;;;;32.20;69.99;101115.56;5038759;28;66266;-35
2024/02/19 04:59:57;;;;;;;12.75;11.60;;;;;;;32.19;69.92;101098.47;5037616;28;69300;-35
2024/02/19 05:02:28;;;;;;;12.85;11.45;;;;;;;32.26;69.68;101106.53;5039208;28;66281;-36
2024/02/19 05:04:58;;;;;;;12.85;11.85;;;;;;;32.28;69.81;101099.00;5040193;28;70304;-35
2024/02/19 05:07:30;;;;;;;12.38;11.15;;;;;;;32.31;69.57;101095.00;5039007;28;67007;-35
2024/02/19 05:10:00;;;;;;;11.27;10.45;;;;;;;32.34;69.63;101087.25;5034774;28;69912;-35
2024/02/19 05:12:32;;;;;;;13.65;12.38;;;;;;;32.31;69.59;101079.53;5038113;28;66568;-35
2024/02/19 05:15:04;;;;;;;13.00;11.90;;;;;;;32.38;69.47;101080.31;5038570;28;70310;-35
2024/02/19 05:17:36;;;;;;;13.57;12.38;;;;;;;32.40;69.46;101075.50;5039530;28;65583;-35
2024/02/19 05:20:07;;;;;;;13.25;12.10;;;;;;;32.37;69.50;101062.34;5038385;28;70206;-36
2024/02/19 05:22:38;;;;;;;12.63;11.80;;;;;;;32.42;69.50;101059.78;5039172;28;66451;-35
2024/02/19 05:25:09;;;;;;;13.02;12.02;;;;;;;32.44;69.37;101057.69;5038672;28;70161;-35
2024/02/19 05:27:40;;;;;;;13.02;11.90;;;;;;;32.49;69.65;101048.91;5028578;28;66110;-36
2024/02/19 05:30:12;;;;;;;12.63;11.43;;;;;;;32.53;69.27;101041.13;5039341;28;70055;-35
2024/02/19 05:32:43;;;;;;;12.90;11.98;;;;;;;32.54;69.52;101029.19;5031511;28;65524;-37
2024/02/19 05:35:14;;;;;;;12.75;11.55;;;;;;;32.57;69.10;101026.88;5036384;28;69746;-36
2024/02/19 05:37:44;;;;;;;13.80;12.50;;;;;;;32.60;69.15;101031.00;5032754;28;66307;-36
2024/02/19 05:40:15;;;;;;;12.82;11.73;;;;;;;32.63;69.07;101019.69;5033565;28;71018;-36
2024/02/19 05:42:47;;;;;;;13.03;12.00;;;;;;;32.64;68.88;101016.72;5031948;28;65453;-34
2024/02/19 05:45:17;;;;;;;13.25;12.18;;;;;;;32.67;69.04;101010.00;5036104;28;69562;-35
2024/02/19 05:47:48;;;;;;;13.63;12.27;;;;;;;32.71;68.89;101011.22;5034818;28;65757;-36
2024/02/19 05:50:26;;;;;;;12.95;11.85;;;;;;;32.74;68.90;101004.50;5037411;28;69952;-35
2024/02/19 05:52:57;;;;;;;12.85;11.88;;;;;;;32.76;68.90;100999.66;5038715;28;66796;-35
2024/02/19 05:55:28;;;;;;;13.50;12.20;;;;;;;32.74;68.72;100994.47;5025580;28;70084;-37
2024/02/19 05:57:59;;;;;;;12.38;11.35;;;;;;;32.79;69.03;100997.31;5038836;28;64677;-35
2024/02/19 06:00:30;;;;;;;13.27;12.07;;;;;;;32.83;68.75;100987.63;5039001;28;69995;-35
2024/02/19 06:03:04;;;;;;;12.77;11.57;;;;;;;32.84;68.70;100975.69;5036971;28;66482;-36
2024/02/19 06:05:35;;;;;;;13.13;12.18;;;;;;;32.88;68.62;100974.19;5038611;28;69597;-34
2024/02/19 06:08:08;;;;;;;12.57;11.57;;;;;;;32.91;68.48;100981.06;5038249;28;67842;-35
2024/02/19 06:10:39;;;;;;;12.77;11.85;;;;;;;32.94;68.65;100983.31;5037024;28;70523;-34
2024/02/19 06:13:13;;;;;;;12.25;11.27;;;;;;;32.97;68.56;100976.59;5037794;28;66109;-36
2024/02/19 06:15:47;;;;;;;12.35;11.35;;;;;;;33.00;68.64;100978.88;5036939;28;70206;-35
2024/02/19 06:18:19;;;;;;;11.70;10.80;;;;;;;33.00;68.67;100971.53;5037861;28;66389;-36
2024/02/19 06:20:50;;;;;;;13.93;12.57;;;;;;;33.05;68.57;100968.13;5038168;28;70123;-35
2024/02/19 06:23:21;;;;;;;13.05;12.02;;;;;;;33.08;68.42;100965.75;5036044;28;65552;-35
2024/02/19 06:25:53;;;;;;;11.90;10.88;;;;;;;33.09;68.27;100963.88;5037919;28;70648;-35
2024/02/19 06:28:23;;;;;;;12.50;11.50;;;;;;;33.13;68.29;100970.50;5037778;28;66358;-34
2024/02/19 06:30:54;;;;;;;12.73;11.18;;;;;;;33.15;68.42;100965.66;5036191;28;70852;-37
2024/02/19 06:33:25;;;;;;;12.50;11.07;;;;;;;33.17;68.20;100960.81;5035865;28;65647;-36
2024/02/19 06:35:59;;;;;;;12.43;11.20;;;;;;;33.20;68.18;100965.78;5037874;28;69989;-35
2024/02/19 06:38:30;;;;;;;13.20;11.98;;;;;;;33.21;68.47;100962.00;5037141;28;66760;-36
2024/02/19 06:41:00;;;;;;;12.60;11.57;;;;;;;33.23;68.24;100954.44;5028117;28;71782;-36
2024/02/19 06:43:31;;;;;;;11.98;10.98;;;;;;;33.29;68.17;100956.22;5037552;28;66924;-37
2024/02/19 06:46:02;;;;;;;12.18;10.88;;;;;;;33.31;68.12;100948.66;5036271;28;69292;-36
2024/02/19 06:48:33;;;;;;;14.38;11.82;;;;;;;33.35;68.21;100947.13;5036988;28;66872;-36
2024/02/19 06:51:07;;;;;;;12.73;11.73;;;;;;;33.35;67.89;100932.72;5029379;28;70714;-36
2024/02/19 06:53:38;;;;;;;13.55;11.70;;;;;;;33.34;67.92;100923.69;5037426;28;66494;-34
2024/02/19 06:56:09;;;;;;;11.02;10.25;;;;;;;33.40;67.86;100926.53;5037444;28;70550;-35
2024/02/19 06:58:40;;;;;;;12.20;10.98;;;;;;;33.44;68.03;100919.59;5034157;28;65371;-35
2024/02/19 07:01:14;;;;;;;11.70;10.70;;;;;;;33.49;67.99;100919.69;5037677;28;70443;-35
2024/02/19 07:03:45;;;;;;;12.07;11.27;;;;;;;33.53;67.73;100920.91;5038650;28;65847;-36
2024/02/19 07:06:16;;;;;;;11.45;10.73;;;;;;;33.51;67.60;100912.13;5038480;28;70586;-36
2024/02/19 07:08:47;;;;;;;11.65;10.30;;;;;;;33.59;67.81;100911.78;5041596;28;66285;-35
2024/02/19 07:11:18;;;;;;;12.10;11.05;;;;;;;33.58;67.45;100902.81;5041895;28;69450;-36
2024/02/19 07:13:51;;;;;;;10.77;9.90;;;;;;;33.64;67.58;100906.47;5038492;28;66078;-35
2024/02/19 07:16:23;;;;;;;11.48;10.45;;;;;;;33.68;67.83;100901.38;5040719;28;70120;-38
2024/02/19 07:18:54;;;;;;;11.20;10.40;;;;;;;33.69;67.61;100901.13;5041465;28;66381;-38
2024/02/19 07:21:25;;;;;;;10.90;9.90;;;;;;;33.72;67.59;100887.06;5039726;28;70384;-37
2024/02/19 07:23:56;;;;;;;13.07;9.93;;;;;;;33.71;67.71;100885.41;5041283;28;65974;-35
2024/02/19 07:26:28;;;;;;;11.68;10.43;;;;;;;33.82;67.15;100886.44;5040541;28;69753;-35
2024/02/19 07:29:00;;;;;;;10.57;9.88;;;;;;;33.81;67.56;100882.88;5040191;28;65813;-35
2024/02/19 07:31:31;;;;;;;11.47;10.33;;;;;;;33.87;67.26;100885.72;5040293;28;69274;-35
2024/02/19 07:34:02;;;;;;;10.80;9.98;;;;;;;33.92;67.38;100885.81;5036924;28;66606;-36
2024/02/19 07:36:33;;;;;;;10.73;9.60;;;;;;;33.96;67.42;100882.41;5037587;28;70217;-35
2024/02/19 07:39:08;;;;;;;11.20;10.15;;;;;;;33.99;67.58;100876.47;5040111;28;65676;-35
2024/02/19 07:41:39;;;;;;;11.00;9.97;;;;;;;34.01;67.20;100873.47;5038906;28;70566;-36
2024/02/19 07:44:09;;;;;;;10.40;9.70;;;;;;;34.08;67.20;100873.38;5039266;28;66132;-36
2024/02/19 07:46:40;;;;;;;10.18;9.40;;;;;;;34.12;67.41;100875.38;5040062;28;70175;-40
2024/02/19 07:49:11;;;;;;;10.90;10.10;;;;;;;34.14;66.97;100862.34;5039914;28;66588;-35
2024/02/19 07:51:42;;;;;;;10.10;9.30;;;;;;;34.19;66.94;100854.28;5041319;28;70609;-35
2024/02/19 07:54:13;;;;;;;10.43;9.50;;;;;;;34.23;67.39;100860.88;5041243;28;66572;-35
2024/02/19 07:56:45;;;;;;;10.27;9.30;;;;;;;34.28;67.02;100856.63;5039816;28;70281;-35
2024/02/19 07:59:16;;;;;;;9.93;9.07;;;;;;;34.32;66.90;100852.31;5037329;28;66032;-35
2024/02/19 08:01:47;;;;;;;9.40;8.57;;;;;;;34.36;66.89;100854.31;5038961;28;68585;-35
2024/02/19 08:04:18;;;;;;;10.07;9.17;;;;;;;34.41;66.56;100859.84;5040215;28;67177;-35
2024/02/19 08:06:54;;;;;;;8.93;8.23;;;;;;;34.45;66.77;100857.47;5040517;28;70230;-35
2024/02/19 08:09:38;;;;;;;9.70;8.98;;;;;;;34.40;66.66;100832.84;5037891;28;66412;-35
2024/02/19 08:12:09;;;;;;;8.35;7.75;;;;;;;34.52;67.04;100847.25;5040161;28;71090;-36
2024/02/19 08:14:40;;;;;;;8.57;8.07;;;;;;;34.56;66.98;100842.97;5039585;28;66649;-36
2024/02/19 08:17:12;;;;;;;9.00;8.15;;;;;;;34.62;67.12;100841.97;5040924;28;69109;-35
2024/02/19 08:19:43;;;;;;;9.20;8.20;;;;;;;34.66;66.33;100837.72;5029732;28;67160;-35
2024/02/19 08:22:13;;;;;;;8.27;7.67;;;;;;;34.70;66.47;100838.03;5046928;28;70247;-37
2024/02/19 08:24:45;;;;;;;8.60;7.83;;;;;;;34.73;66.56;100832.09;5039023;28;64822;-35
2024/02/19 08:27:15;;;;;;;8.52;8.02;;;;;;;34.83;66.33;100842.34;5039219;28;69389;-35
2024/02/19 08:29:46;;;;;;;7.78;7.28;;;;;;;34.87;66.42;100840.75;5037960;28;66150;-35
2024/02/19 08:32:17;;;;;;;7.20;6.73;;;;;;;34.91;65.94;100829.13;5040256;28;69975;-36
2024/02/19 08:34:48;;;;;;;8.18;7.47;;;;;;;34.83;66.54;100810.47;5040553;28;66550;-36
2024/02/19 08:37:18;;;;;;;7.10;6.50;;;;;;;34.98;66.34;100839.81;5043672;28;69172;-36
2024/02/19 08:39:49;;;;;;;8.95;7.03;;;;;;;35.04;65.97;100840.72;5045182;28;67931;-37
2024/02/19 08:42:20;;;;;;;8.53;6.77;;;;;;;35.09;65.84;100836.22;5038108;28;70544;-37
2024/02/19 08:44:51;;;;;;;7.23;6.67;;;;;;;35.14;65.72;100833.56;5037506;28;66513;-37
2024/02/19 08:47:22;;;;;;;6.97;6.35;;;;;;;35.20;66.19;100841.81;5040079;28;69331;-35
2024/02/19 08:49:53;;;;;;;7.53;6.55;;;;;;;35.21;65.96;100827.09;5039812;28;66555;-35
2024/02/19 08:52:25;;;;;;;7.88;6.65;;;;;;;35.25;66.09;100831.00;5038722;28;71243;-36
2024/02/19 08:54:56;;;;;;;;;;;;;;;35.19;65.41;100829.25;5039767;28;65665;-35
2024/02/19 08:57:26;;;;;;;6.85;6.07;;;;;;;35.35;65.63;100833.84;5040150;28;69739;-36
2024/02/19 08:59:57;;;;;;;8.40;6.67;;;;;;;35.38;65.40;100827.88;5039885;28;66166;-37
2024/02/19 09:02:29;;;;;;;6.32;5.80;;;;;;;35.43;65.61;100830.69;5039621;28;69831;-35
2024/02/19 09:05:00;;;;;;;6.78;6.28;;;;;;;35.48;65.38;100828.00;5036202;28;65697;-35
2024/02/19 09:07:31;;;;;;;8.18;5.70;;;;;;;35.50;65.26;100825.88;5038406;28;70856;-36
2024/02/19 09:10:04;;;;;;;6.40;5.90;;;;;;;35.57;65.62;100840.16;5039223;28;66295;-36
2024/02/19 09:12:35;;;;;;;6.40;5.78;;;;;;;35.62;65.67;100841.31;5034458;28;69850;-36
2024/02/19 09:15:06;;;;;;;5.88;5.47;;;;;;;35.63;65.04;100843.78;5038000;28;66268;-35
2024/02/19 09:17:38;;;;;;;7.68;5.70;;;;;;;35.57;65.15;100842.06;5038915;28;70629;-35
2024/02/19 09:20:09;;;;;;;7.25;6.53;;;;;;;35.58;65.84;100839.09;5037995;28;66818;-35
2024/02/19 09:22:43;;;;;;;8.80;6.03;;;;;;;35.61;65.71;100853.28;5039813;28;69760;-35
2024/02/19 09:25:16;;;;;;;6.80;6.13;;;;;;;35.54;66.33;100848.00;5039760;28;65988;-36
2024/02/19 09:27:49;;;;;;;6.70;6.05;;;;;;;35.56;66.33;100852.16;5037227;28;70538;-36
2024/02/19 09:30:20;;;;;;;8.05;6.07;;;;;;;35.55;66.16;100852.38;5039032;28;66082;-36
2024/02/19 09:32:51;;;;;;;7.05;6.05;;;;;;;35.58;65.78;100841.81;5038168;28;70187;-36
2024/02/19 09:35:22;;;;;;;10.37;6.10;;;;;;;35.57;65.81;100851.06;5039694;28;66583;-37
2024/02/19 09:37:52;;;;;;;6.50;5.95;;;;;;;35.56;66.32;100849.44;5044846;28;70510;-35
2024/02/19 09:40:26;;;;;;;6.27;5.50;;;;;;;35.64;65.70;100850.91;5036250;28;66288;-34
2024/02/19 09:42:57;;;;;;;10.32;5.75;;;;;;;35.64;65.58;100852.81;5038450;28;70581;-35
2024/02/19 09:45:28;;;;;;;7.17;6.47;;;;;;;35.49;66.07;100853.38;5038892;28;65688;-36
2024/02/19 09:48:03;;;;;;;7.03;6.38;;;;;;;35.49;65.92;100839.75;5037286;28;70533;-36
2024/02/19 09:50:34;;;;;;;7.95;5.97;;;;;;;35.69;65.62;100861.03;5033889;28;66228;-36
2024/02/19 09:53:12;;;;;;;9.63;5.57;;;;;;;35.66;65.92;100864.28;5038644;28;69479;-36
2024/02/19 09:55:43;;;;;;;7.65;6.20;;;;;;;35.53;65.26;100847.19;5036087;28;65422;-36
2024/02/19 09:58:14;;;;;;;8.37;5.90;;;;;;;35.69;65.61;100874.69;5038115;28;70055;-36
2024/02/19 10:00:46;;;;;;;10.63;6.07;;;;;;;35.70;65.36;100868.16;5037168;28;65492;-35
2024/02/19 10:03:19;;;;;;;18.20;5.90;;;;;;;35.71;65.08;100880.72;5037321;28;70259;-36
2024/02/19 10:05:50;;;;;;;13.93;6.13;;;;;;;35.63;64.30;100870.25;5037149;28;66719;-35
2024/02/19 10:08:21;;;;;;;15.32;6.70;;;;;;;35.71;65.07;100876.06;5028263;28;69165;-35
2024/02/19 10:11:00;;;;;;;14.05;6.63;;;;;;;35.76;64.17;100884.34;5036846;28;65981;-34
2024/02/19 10:13:33;;;;;;;19.05;6.43;;;;;;;35.70;64.88;100879.06;5031366;28;69582;-35
2024/02/19 10:16:10;;;;;;;11.18;5.63;;;;;;;35.55;64.18;100864.13;5037483;28;66310;-35
2024/02/19 10:18:43;;;;;;;15.95;5.80;;;;;;;35.71;64.73;100894.34;5037622;28;69944;-34
2024/02/19 10:21:14;;;;;;;10.50;5.30;;;;;;;35.70;64.49;100900.91;5037859;28;66300;-36
2024/02/19 10:23:47;;;;;;;9.50;6.13;;;;;;;35.61;64.56;100886.03;5036868;28;69463;-34
2024/02/19 10:26:18;;;;;;;10.93;5.65;;;;;;;35.61;63.69;100897.78;5038120;28;66181;-35
2024/02/19 10:28:55;;;;;;;15.60;6.50;;;;;;;35.50;64.09;100895.97;5038770;28;70974;-35
2024/02/19 10:31:27;;;;;;;11.63;5.97;;;;;;;35.68;63.87;100905.78;5029980;28;66139;-35
2024/02/19 10:33:57;;;;;;;;;;;;;;;35.51;64.66;100908.53;5038835;28;69759;-35
2024/02/19 10:36:29;;;;;;;24.67;6.78;;;;;;;35.59;64.58;100908.13;5039555;28;66805;-36
2024/02/19 10:39:00;;;;;;;13.27;6.88;;;;;;;35.54;65.05;100895.19;5037825;28;70215;-37
2024/02/19 10:41:30;;;;;;;24.08;9.95;;;;;;;35.49;65.09;100903.31;5039403;28;65363;-35
2024/02/19 10:44:02;;;;;;;32.42;14.43;;;;;;;35.52;65.41;100916.47;5039283;28;69211;-34
2024/02/19 10:46:33;;;;;;;47.75;18.25;;;;;;;35.53;64.98;100918.13;5036607;28;66088;-35
2024/02/19 10:49:04;;;;;;;;;;;;;;;35.48;65.79;100915.31;5034433;28;70094;-35
2024/02/19 10:51:39;;;;;;;64.78;21.90;;;;;;;35.49;65.83;100916.94;5033593;28;67208;-36
2024/02/19 10:54:10;;;;;;;65.32;23.13;;;;;;;35.36;66.40;100906.41;5037742;28;70224;-36
2024/02/19 10:56:44;;;;;;;47.40;21.05;;;;;;;35.44;66.54;100925.09;5036306;28;65723;-35
2024/02/19 10:59:17;;;;;;;50.38;19.73;;;;;;;35.37;66.23;100918.97;5027284;28;69765;-35
2024/02/19 11:01:48;;;;;;;48.97;18.33;;;;;;;35.26;66.85;100908.97;5037521;28;66024;-36
2024/02/19 11:04:23;;;;;;;45.58;16.98;;;;;;;35.33;67.31;100918.66;5037004;28;70017;-35
2024/02/19 11:06:54;;;;;;;43.92;16.55;;;;;;;35.34;67.85;100927.66;5041251;28;66665;-36
2024/02/19 11:09:36;;;;;;;33.92;14.48;;;;;;;35.26;67.79;100922.63;5040033;28;70883;-35
2024/02/19 11:12:13;;;;;;;37.72;13.43;;;;;;;35.16;67.59;100914.28;5028951;28;65661;-35
2024/02/19 11:14:45;;;;;;;29.30;12.40;;;;;;;35.23;67.51;100936.75;5039079;28;69516;-36
2024/02/19 11:17:17;;;;;;;28.38;11.27;;;;;;;35.14;68.10;100937.16;5041478;28;66383;-35
2024/02/19 11:19:50;;;;;;;24.35;12.65;;;;;;;35.17;67.99;100940.47;5041699;28;70289;-35
2024/02/19 11:22:30;;;;;;;21.95;11.25;;;;;;;35.04;68.85;100926.06;5041404;28;66139;-37
2024/02/19 11:25:01;;;;;;;22.60;9.63;;;;;;;35.07;68.12;100931.03;5040652;28;70089;-35
2024/02/19 11:27:33;;;;;;;24.80;10.43;;;;;;;35.05;69.09;100938.63;5039631;28;66386;-34
2024/02/19 11:30:09;;;;;;;23.38;10.30;;;;;;;35.02;68.35;100950.03;5041857;28;70300;-36
2024/02/19 11:32:39;;;;;;;16.73;9.23;;;;;;;34.96;68.57;100945.53;5036413;28;65604;-35
2024/02/19 11:35:12;;;;;;;16.57;8.43;;;;;;;34.93;68.93;100935.16;5034884;28;70582;-37